createdAt,value
2017-12-19T00:01:21.704Z,23.70
2017-12-19T00:03:49.910Z,24.33
2017-12-19T00:06:18.144Z,25.50
2017-12-19T00:08:47.134Z,21.70
2017-12-19T00:11:15.377Z,20.33
2017-12-19T00:13:44.373Z,24.03
2017-12-19T00:16:12.590Z,21.73
2017-12-19T00:18:41.589Z,22.37
2017-12-19T00:21:09.819Z,20.30
2017-12-19T00:23:38.041Z,22.17
2017-12-19T00:26:07.012Z,22.13
2017-12-19T00:28:35.229Z,23.37
2017-12-19T00:31:03.434Z,22.90
2017-12-19T00:33:31.681Z,20.47
2017-12-19T00:35:59.923Z,23.67
2017-12-19T00:38:28.133Z,22.10
2017-12-19T00:40:56.333Z,23.80
2017-12-19T00:43:24.563Z,19.10
2017-12-19T00:45:52.766Z,23.10
2017-12-19T00:48:20.975Z,23.07
2017-12-19T00:50:49.208Z,23.33
2017-12-19T00:53:17.750Z,23.70
2017-12-19T00:55:45.962Z,19.87
2017-12-19T00:58:14.170Z,23.43
2017-12-19T01:00:42.404Z,23.80
2017-12-19T01:03:10.609Z,22.30
2017-12-19T01:05:39.126Z,22.10
2017-12-19T01:08:07.345Z,23.77
2017-12-19T01:10:35.987Z,23.37
2017-12-19T01:13:04.215Z,22.83
2017-12-19T01:15:32.421Z,20.57
2017-12-19T01:18:00.915Z,22.43
2017-12-19T01:20:29.907Z,22.33
2017-12-19T01:22:58.158Z,22.30
2017-12-19T01:25:26.382Z,20.23
2017-12-19T01:27:54.602Z,21.80
2017-12-19T01:30:22.816Z,24.80
2017-12-19T01:32:51.789Z,22.53
2017-12-19T01:35:20.030Z,20.50
2017-12-19T01:37:48.249Z,21.40
2017-12-19T01:40:16.451Z,24.77
2017-12-19T01:42:44.667Z,19.90
2017-12-19T01:45:12.889Z,21.53
2017-12-19T01:47:41.113Z,22.20
2017-12-19T01:50:10.141Z,20.60
2017-12-19T01:52:39.122Z,22.23
2017-12-19T01:55:08.432Z,23.10
2017-12-19T01:57:37.401Z,21.97
2017-12-19T02:00:05.620Z,22.47
2017-12-19T02:02:33.842Z,21.87
2017-12-19T02:05:02.349Z,22.40
2017-12-19T02:07:30.571Z,20.33
2017-12-19T02:09:58.802Z,22.93
2017-12-19T02:15:02.465Z,23.47
2017-12-19T02:17:30.717Z,19.87
2017-12-19T02:19:58.951Z,26.10
2017-12-19T02:22:27.963Z,23.77
2017-12-19T02:24:56.154Z,24.13
2017-12-19T02:27:25.226Z,25.30
2017-12-19T02:29:54.197Z,27.93
2017-12-19T02:32:23.322Z,32.30
2017-12-19T02:34:52.762Z,28.63
2017-12-19T02:37:21.117Z,25.63
2017-12-19T02:39:49.350Z,28.73
2017-12-19T02:42:17.553Z,26.90
2017-12-19T02:44:46.524Z,28.40
2017-12-19T02:47:15.017Z,27.70
2017-12-19T02:49:43.219Z,26.83
2017-12-19T02:52:11.425Z,26.47
2017-12-19T02:54:39.638Z,29.80
2017-12-19T02:57:07.866Z,31.10
2017-12-19T02:59:36.087Z,32.37
2017-12-19T03:02:04.289Z,30.97
2017-12-19T03:04:33.909Z,28.13
2017-12-19T03:07:02.158Z,26.07
2017-12-19T03:09:30.374Z,28.13
2017-12-19T03:11:58.585Z,31.23
2017-12-19T03:14:27.069Z,33.00
2017-12-19T03:16:55.299Z,34.43
2017-12-19T03:19:23.507Z,31.80
2017-12-19T03:21:54.683Z,32.57
2017-12-19T03:24:25.391Z,33.03
2017-12-19T03:26:53.598Z,35.10
2017-12-19T03:29:21.795Z,39.00
2017-12-19T03:31:50.014Z,32.33
2017-12-19T03:34:18.218Z,34.47
2017-12-19T03:36:46.774Z,33.07
2017-12-19T03:39:15.023Z,33.63
2017-12-19T03:41:44.743Z,34.13
2017-12-19T03:44:12.977Z,37.73
2017-12-19T03:46:41.923Z,35.87
2017-12-19T03:49:10.134Z,35.77
2017-12-19T03:51:38.574Z,42.80
2017-12-19T03:54:06.800Z,40.47
2017-12-19T03:56:35.006Z,45.10
2017-12-19T03:59:03.999Z,38.83
2017-12-19T04:01:32.211Z,36.40
2017-12-19T04:04:01.174Z,36.43
2017-12-19T04:06:29.379Z,43.17
2017-12-19T04:08:58.345Z,42.63
2017-12-19T04:11:26.562Z,36.67
2017-12-19T04:13:54.768Z,40.53
2017-12-19T04:16:22.983Z,36.40
2017-12-19T04:18:51.213Z,41.17
2017-12-19T04:21:19.438Z,38.20
2017-12-19T04:23:47.646Z,44.43
2017-12-19T04:26:15.888Z,41.90
2017-12-19T04:28:44.858Z,41.57
2017-12-19T04:31:13.078Z,36.57
2017-12-19T04:33:41.306Z,43.37
2017-12-19T04:36:09.517Z,41.60
2017-12-19T04:38:37.770Z,40.43
2017-12-19T04:41:06.738Z,41.07
2017-12-19T04:43:34.961Z,38.63
2017-12-19T04:46:03.165Z,38.73
2017-12-19T04:48:31.397Z,35.97
2017-12-19T04:50:59.609Z,41.03
2017-12-19T04:53:27.814Z,40.60
2017-12-19T04:55:56.789Z,42.50
2017-12-19T04:58:25.014Z,37.23
2017-12-19T05:00:53.253Z,41.93
2017-12-19T05:03:22.321Z,40.70
2017-12-19T05:05:50.533Z,44.87
2017-12-19T05:08:18.729Z,41.63
2017-12-19T05:10:48.002Z,39.03
2017-12-19T05:13:16.482Z,43.17
2017-12-19T05:15:45.468Z,45.63
2017-12-19T05:18:14.449Z,43.13
2017-12-19T05:20:42.693Z,45.73
2017-12-19T05:23:10.897Z,38.30
2017-12-19T05:25:39.105Z,42.27
2017-12-19T05:30:42.617Z,42.13
2017-12-19T05:33:10.851Z,41.47
2017-12-19T05:35:39.066Z,41.80
2017-12-19T05:38:08.046Z,44.37
2017-12-19T05:40:36.245Z,49.20
2017-12-19T05:43:05.235Z,44.63
2017-12-19T05:45:34.217Z,39.70
2017-12-19T05:48:03.185Z,41.53
2017-12-19T05:50:32.187Z,40.53
2017-12-19T05:53:00.385Z,43.40
2017-12-19T05:55:28.610Z,41.10
2017-12-19T05:57:56.812Z,46.97
2017-12-19T06:00:25.338Z,44.03
2017-12-19T06:02:53.481Z,47.33
2017-12-19T06:05:22.462Z,45.70
2017-12-19T06:07:51.446Z,43.07
2017-12-19T06:10:19.961Z,45.57
2017-12-19T06:12:48.163Z,48.47
2017-12-19T06:15:16.358Z,40.70
2017-12-19T06:17:44.558Z,44.47
2017-12-19T06:20:12.781Z,43.53
2017-12-19T06:22:41.005Z,45.20
2017-12-19T06:25:09.198Z,43.73
2017-12-19T06:27:37.417Z,44.77
2017-12-19T06:30:05.614Z,44.30
2017-12-19T06:32:33.830Z,41.17
2017-12-19T06:35:02.034Z,46.57
2017-12-19T06:37:30.270Z,44.37
2017-12-19T06:39:58.470Z,44.20
2017-12-19T06:42:26.697Z,45.57
2017-12-19T06:44:55.668Z,45.43
2017-12-19T06:47:23.878Z,43.83
2017-12-19T06:49:52.122Z,46.90
2017-12-19T06:52:21.221Z,48.53
2017-12-19T06:54:49.762Z,55.80
2017-12-19T06:57:18.002Z,46.90
2017-12-19T06:59:46.975Z,45.33
2017-12-19T07:02:15.205Z,51.43
2017-12-19T07:04:43.459Z,51.07
2017-12-19T07:07:11.669Z,53.10
2017-12-19T07:09:39.905Z,57.27
2017-12-19T07:12:08.109Z,57.40
2017-12-19T07:14:36.310Z,56.93
2017-12-19T07:17:05.319Z,54.90
2017-12-19T07:19:34.294Z,59.33
2017-12-19T07:22:02.506Z,61.63
2017-12-19T07:24:30.717Z,70.40
2017-12-19T07:26:58.931Z,58.03
2017-12-19T07:29:27.126Z,58.57
2017-12-19T07:31:56.106Z,66.00
2017-12-19T07:34:25.092Z,60.10
2017-12-19T07:36:53.313Z,57.33
2017-12-19T07:39:22.351Z,65.03
2017-12-19T07:41:51.367Z,74.10
2017-12-19T07:44:20.331Z,72.40
2017-12-19T07:46:48.546Z,73.87
2017-12-19T07:49:16.758Z,65.60
2017-12-19T07:51:44.994Z,64.60
2017-12-19T07:54:14.076Z,68.63
2017-12-19T07:56:42.846Z,67.67
2017-12-19T07:59:11.847Z,68.33
2017-12-19T08:01:40.814Z,61.03
2017-12-19T08:04:09.053Z,63.87
2017-12-19T08:06:37.250Z,68.90
2017-12-19T08:09:06.266Z,57.57
2017-12-19T08:11:35.468Z,64.20
2017-12-19T08:14:04.585Z,65.23
2017-12-19T08:16:32.798Z,65.47
2017-12-19T08:19:01.037Z,64.57
2017-12-19T08:21:29.246Z,62.60
2017-12-19T08:23:57.441Z,58.77
2017-12-19T08:26:25.654Z,64.87
2017-12-19T08:28:54.630Z,57.83
2017-12-19T08:31:23.616Z,68.53
2017-12-19T08:33:51.826Z,52.73
2017-12-19T08:36:20.052Z,62.13
2017-12-19T08:38:48.265Z,59.50
2017-12-19T08:41:16.477Z,66.00
2017-12-19T08:43:44.691Z,57.87
2017-12-19T08:46:12.900Z,63.20
2017-12-19T08:48:41.110Z,70.90
2017-12-19T08:51:09.323Z,62.87
2017-12-19T08:53:38.282Z,65.60
2017-12-19T08:56:06.534Z,73.23
2017-12-19T08:58:34.705Z,62.60
2017-12-19T09:01:02.942Z,65.03
2017-12-19T09:03:31.910Z,70.30
2017-12-19T09:06:00.126Z,63.73
2017-12-19T09:08:28.338Z,58.67
2017-12-19T09:10:57.358Z,63.90
2017-12-19T09:13:25.669Z,73.53
2017-12-19T09:15:53.882Z,64.73
2017-12-19T09:18:22.106Z,60.70
2017-12-19T09:20:50.315Z,67.80
2017-12-19T09:23:18.558Z,67.93
2017-12-19T09:25:46.782Z,60.70
2017-12-19T09:28:14.986Z,65.90
2017-12-19T09:30:43.974Z,69.27
2017-12-19T09:33:12.954Z,67.27
2017-12-19T09:35:41.949Z,65.97
2017-12-19T09:38:10.149Z,55.37
2017-12-19T09:40:38.366Z,58.10
2017-12-19T09:43:07.402Z,67.90
2017-12-19T09:45:36.702Z,61.77
2017-12-19T09:48:05.394Z,65.23
2017-12-19T09:50:33.622Z,56.57
2017-12-19T09:53:01.821Z,60.63
2017-12-19T09:55:30.039Z,56.37
2017-12-19T09:57:58.242Z,54.77
2017-12-19T10:00:26.455Z,59.23
2017-12-19T10:02:54.660Z,55.50
2017-12-19T10:05:22.902Z,53.73
2017-12-19T10:07:51.894Z,64.47
2017-12-19T10:10:20.102Z,59.60
2017-12-19T10:12:48.323Z,47.43
2017-12-19T10:15:16.524Z,58.67
2017-12-19T10:17:44.770Z,50.23
2017-12-19T10:20:12.986Z,43.13
2017-12-19T10:22:41.448Z,43.43
2017-12-19T10:25:10.422Z,46.20
2017-12-19T10:27:39.435Z,49.07
2017-12-19T10:30:07.636Z,44.07
2017-12-19T10:32:35.869Z,50.80
2017-12-19T10:35:04.858Z,48.93
2017-12-19T10:37:33.072Z,45.10
2017-12-19T10:40:02.035Z,42.50
2017-12-19T10:42:30.277Z,37.40
2017-12-19T10:44:58.498Z,41.53
2017-12-19T10:47:26.764Z,44.93
2017-12-19T10:49:55.274Z,39.73
2017-12-19T10:52:24.248Z,39.83
2017-12-19T10:54:52.459Z,35.83
2017-12-19T10:57:20.670Z,38.37
2017-12-19T10:59:49.703Z,44.03
2017-12-19T11:02:18.665Z,42.10
2017-12-19T11:04:46.877Z,38.87
2017-12-19T11:07:15.089Z,40.57
2017-12-19T11:09:43.406Z,39.33
2017-12-19T11:12:12.375Z,39.77
2017-12-19T11:14:40.612Z,38.77
2017-12-19T11:17:08.826Z,36.40
2017-12-19T11:19:37.080Z,33.03
2017-12-19T11:22:05.301Z,31.97
2017-12-19T11:24:33.514Z,32.27
2017-12-19T11:27:01.742Z,28.33
2017-12-19T11:29:30.719Z,36.47
2017-12-19T11:31:59.006Z,31.97
2017-12-19T11:34:29.619Z,35.20
2017-12-19T11:36:58.635Z,36.57
2017-12-19T11:39:27.118Z,35.43
2017-12-19T11:41:55.334Z,31.83
2017-12-19T11:44:23.562Z,37.17
2017-12-19T11:46:52.550Z,34.47
2017-12-19T11:49:21.540Z,34.03
2017-12-19T11:51:49.746Z,30.17
2017-12-19T11:54:18.018Z,32.63
2017-12-19T11:56:46.971Z,30.47
2017-12-19T11:59:15.973Z,32.00
2017-12-19T12:01:44.214Z,28.47
2017-12-19T12:04:13.351Z,29.13
2017-12-19T12:06:41.561Z,31.17
2017-12-19T12:09:09.807Z,30.93
2017-12-19T12:11:38.786Z,33.80
2017-12-19T12:14:06.986Z,31.03
2017-12-19T12:16:35.209Z,29.00
2017-12-19T12:19:03.435Z,32.07
2017-12-19T12:21:31.747Z,32.43
2017-12-19T12:23:59.969Z,32.00
2017-12-19T12:26:28.206Z,26.10
2017-12-19T12:28:56.418Z,33.10
2017-12-19T12:31:25.415Z,34.23
2017-12-19T12:33:54.394Z,31.93
2017-12-19T12:36:22.606Z,30.70
2017-12-19T12:38:51.022Z,26.50
2017-12-19T12:41:19.238Z,25.57
2017-12-19T12:43:47.482Z,26.90
2017-12-19T12:46:15.695Z,24.73
2017-12-19T12:48:43.910Z,24.90
2017-12-19T12:51:12.119Z,24.07
2017-12-19T12:53:41.110Z,25.73
2017-12-19T12:56:09.334Z,29.27
2017-12-19T12:58:37.554Z,25.97
2017-12-19T13:01:05.753Z,26.47
2017-12-19T13:03:33.965Z,30.73
2017-12-19T13:06:02.169Z,31.00
2017-12-19T13:08:31.200Z,30.93
2017-12-19T13:10:59.427Z,25.60
2017-12-19T13:13:27.629Z,28.87
2017-12-19T13:15:56.614Z,32.40
2017-12-19T13:18:24.821Z,28.97
2017-12-19T13:20:53.030Z,31.13
2017-12-19T13:23:21.247Z,28.40
2017-12-19T13:25:50.234Z,27.70
2017-12-19T13:28:19.211Z,32.30
2017-12-19T13:30:47.418Z,28.80
2017-12-19T13:33:15.631Z,35.53
2017-12-19T13:35:43.838Z,31.93
2017-12-19T13:38:12.812Z,31.53
2017-12-19T13:40:41.038Z,26.63
2017-12-19T13:43:09.262Z,26.37
2017-12-19T13:45:37.515Z,32.40
2017-12-19T13:48:06.413Z,24.43
2017-12-19T13:50:35.055Z,28.43
2017-12-19T13:53:04.009Z,30.30
2017-12-19T13:55:32.541Z,26.57
2017-12-19T13:58:00.811Z,28.00
2017-12-19T14:00:29.031Z,29.90
2017-12-19T14:02:57.249Z,27.67
2017-12-19T14:05:26.219Z,29.97
2017-12-19T14:08:06.597Z,28.97
2017-12-19T14:10:34.896Z,23.87
2017-12-19T14:13:03.118Z,28.70
2017-12-19T14:15:31.371Z,27.37
2017-12-19T14:17:59.633Z,27.53
2017-12-19T14:20:27.841Z,26.50
2017-12-19T14:22:56.062Z,27.60
2017-12-19T14:25:24.265Z,26.93
2017-12-19T14:27:52.477Z,24.50
2017-12-19T14:30:20.691Z,23.63
2017-12-19T14:32:48.924Z,24.13
2017-12-19T14:35:17.135Z,32.23
2017-12-19T14:37:45.338Z,29.67
2017-12-19T14:40:13.591Z,30.00
2017-12-19T14:42:41.799Z,35.40
2017-12-19T14:45:10.018Z,33.80
2017-12-19T14:47:38.234Z,28.77
2017-12-19T14:50:06.450Z,26.30
2017-12-19T14:52:35.479Z,29.17
2017-12-19T14:55:03.704Z,29.83
2017-12-19T14:57:32.855Z,34.00
2017-12-19T15:00:01.086Z,29.07
2017-12-19T15:02:29.290Z,27.47
2017-12-19T15:04:57.510Z,28.37
2017-12-19T15:07:25.726Z,29.17
2017-12-19T15:09:54.691Z,29.70
2017-12-19T15:12:23.686Z,34.87
2017-12-19T15:14:52.989Z,30.20
2017-12-19T15:17:21.981Z,30.83
2017-12-19T15:19:50.175Z,31.30
2017-12-19T15:22:19.207Z,35.83
2017-12-19T15:24:48.134Z,34.50
2017-12-19T15:27:16.350Z,32.97
2017-12-19T15:29:44.584Z,35.37
2017-12-19T15:32:12.799Z,34.37
2017-12-19T15:34:41.342Z,60.30
2017-12-19T15:37:09.546Z,45.47
2017-12-19T15:39:37.778Z,39.07
2017-12-19T15:42:05.994Z,34.60
2017-12-19T15:44:34.242Z,40.67
2017-12-19T15:47:02.476Z,35.97
2017-12-19T15:49:31.501Z,38.60
2017-12-19T15:51:59.992Z,31.87
2017-12-19T15:54:29.497Z,31.13
2017-12-19T15:56:57.710Z,34.83
2017-12-19T15:59:25.909Z,35.93
2017-12-19T16:01:54.145Z,32.53
2017-12-19T16:04:22.341Z,40.40
2017-12-19T16:06:50.643Z,39.43
2017-12-19T16:09:18.812Z,36.03
2017-12-19T16:11:47.837Z,34.17
2017-12-19T16:14:16.045Z,35.77
2017-12-19T16:16:44.291Z,33.33
2017-12-19T16:19:13.265Z,33.03
2017-12-19T16:21:41.474Z,36.50
2017-12-19T16:24:09.701Z,30.73
2017-12-19T16:26:37.921Z,46.03
2017-12-19T16:29:06.138Z,38.80
2017-12-19T16:31:34.385Z,38.20
2017-12-19T16:34:02.613Z,35.73
2017-12-19T16:36:30.858Z,34.20
2017-12-19T16:38:59.071Z,43.27
2017-12-19T16:41:28.042Z,37.83
2017-12-19T16:43:56.545Z,38.47
2017-12-19T16:46:25.525Z,36.83
2017-12-19T16:48:53.750Z,37.80
2017-12-19T16:51:21.958Z,35.60
2017-12-19T16:53:50.186Z,38.17
2017-12-19T16:56:18.389Z,38.70
2017-12-19T16:58:46.605Z,50.37
2017-12-19T17:01:15.586Z,38.30
2017-12-19T17:03:44.589Z,36.27
2017-12-19T17:06:13.570Z,40.37
2017-12-19T17:08:41.810Z,39.87
2017-12-19T17:11:10.032Z,38.33
2017-12-19T17:13:38.242Z,41.70
2017-12-19T17:16:06.449Z,39.40
2017-12-19T17:18:34.672Z,39.83
2017-12-19T17:21:02.901Z,42.50
2017-12-19T17:23:31.113Z,42.33
2017-12-19T17:26:00.094Z,41.23
2017-12-19T17:28:29.098Z,37.50
2017-12-19T17:30:57.338Z,40.37
2017-12-19T17:33:25.557Z,38.97
2017-12-19T17:35:53.831Z,40.03
2017-12-19T17:38:22.077Z,45.17
2017-12-19T17:40:51.078Z,36.17
2017-12-19T17:43:20.126Z,42.93
2017-12-19T17:45:48.333Z,39.40
2017-12-19T17:48:16.549Z,37.90
2017-12-19T17:50:44.754Z,46.50
2017-12-19T17:53:12.971Z,38.20
2017-12-19T17:55:41.181Z,37.70
2017-12-19T17:58:09.424Z,34.77
2017-12-19T18:00:37.625Z,32.07
2017-12-19T18:03:05.832Z,36.87
2017-12-19T18:05:34.042Z,34.83
2017-12-19T18:08:02.251Z,33.47
2017-12-19T18:10:31.443Z,37.67
2017-12-19T18:12:59.679Z,32.67
2017-12-19T18:15:27.889Z,32.90
2017-12-19T18:17:56.085Z,29.27
2017-12-19T18:20:24.355Z,32.40
2017-12-19T18:22:52.579Z,26.97
2017-12-19T18:25:20.780Z,29.27
2017-12-19T18:27:49.762Z,31.40
2017-12-19T18:30:18.823Z,32.33
2017-12-19T18:32:47.046Z,29.10
2017-12-19T18:35:15.286Z,30.17
2017-12-19T18:37:43.526Z,44.73
2017-12-19T18:40:11.725Z,30.10
2017-12-19T18:42:39.934Z,30.03
2017-12-19T18:45:08.285Z,31.33
2017-12-19T18:47:36.614Z,30.97
2017-12-19T18:50:04.935Z,31.57
2017-12-19T18:52:33.190Z,31.03
2017-12-19T18:55:01.405Z,31.47
2017-12-19T18:57:29.632Z,29.67
2017-12-19T18:59:57.851Z,33.43
2017-12-19T19:02:26.818Z,36.40
2017-12-19T19:04:55.202Z,36.90
2017-12-19T19:07:23.487Z,36.53
2017-12-19T19:09:52.499Z,37.40
2017-12-19T19:12:21.478Z,34.80
2017-12-19T19:14:49.722Z,34.07
2017-12-19T19:17:17.943Z,33.50
2017-12-19T19:19:46.222Z,35.13
2017-12-19T19:22:14.446Z,38.57
2017-12-19T19:24:42.665Z,34.27
2017-12-19T19:27:10.898Z,33.83
2017-12-19T19:29:39.143Z,37.10
2017-12-19T19:32:07.367Z,38.67
2017-12-19T19:34:35.573Z,37.07
2017-12-19T19:37:04.022Z,36.90
2017-12-19T19:39:33.005Z,32.03
2017-12-19T19:42:02.006Z,35.47
2017-12-19T19:44:31.025Z,35.10
2017-12-19T19:46:59.382Z,39.50
2017-12-19T19:49:28.790Z,35.57
2017-12-19T19:51:57.094Z,37.30
2017-12-19T19:54:25.409Z,35.10
2017-12-19T19:56:53.649Z,34.47
2017-12-19T19:59:22.654Z,39.20
2017-12-19T20:01:50.983Z,37.93
2017-12-19T20:04:19.291Z,44.53
2017-12-19T20:06:47.428Z,40.13
2017-12-19T20:09:15.650Z,38.53
2017-12-19T20:11:43.859Z,42.00
2017-12-19T20:14:12.085Z,41.77
2017-12-19T20:16:40.305Z,40.23
2017-12-19T20:19:08.554Z,40.97
2017-12-19T20:21:36.765Z,40.50
2017-12-19T20:24:05.255Z,39.50
2017-12-19T20:26:33.478Z,46.27
2017-12-19T20:29:01.697Z,44.53
2017-12-19T20:31:30.117Z,42.93
2017-12-19T20:33:58.350Z,41.33
2017-12-19T20:36:26.603Z,40.97
2017-12-19T20:38:55.038Z,40.20
2017-12-19T20:41:23.480Z,39.23
2017-12-19T20:43:51.691Z,42.60
2017-12-19T20:46:20.766Z,46.23
2017-12-19T20:48:49.006Z,42.00
2017-12-19T20:51:17.363Z,40.40
2017-12-19T20:53:45.654Z,41.77
2017-12-19T20:56:14.685Z,37.63
2017-12-19T20:58:43.028Z,39.60
2017-12-19T21:01:11.234Z,35.20
2017-12-19T21:03:40.225Z,41.80
2017-12-19T21:06:08.637Z,38.23
2017-12-19T21:08:36.865Z,36.10
2017-12-19T21:11:05.871Z,42.67
2017-12-19T21:13:34.882Z,36.40
2017-12-19T21:16:03.100Z,41.37
2017-12-19T21:18:31.318Z,37.37
2017-12-19T21:21:00.312Z,43.93
2017-12-19T21:23:28.538Z,40.73
2017-12-19T21:25:56.770Z,41.07
2017-12-19T21:28:24.994Z,42.90
2017-12-19T21:30:53.242Z,42.40
2017-12-19T21:33:21.469Z,39.70
2017-12-19T21:35:49.696Z,39.57
2017-12-19T21:38:19.025Z,44.83
2017-12-19T21:40:47.239Z,48.87
2017-12-19T21:43:16.206Z,46.13
2017-12-19T21:45:45.307Z,47.47
2017-12-19T21:48:13.497Z,53.33
2017-12-19T21:50:42.469Z,47.03
2017-12-19T21:53:10.683Z,45.83
2017-12-19T21:55:38.897Z,49.20
2017-12-19T21:58:07.109Z,49.33
2017-12-19T22:00:35.401Z,50.13
2017-12-19T22:03:03.624Z,45.53
2017-12-19T22:05:32.134Z,45.50
2017-12-19T22:08:00.383Z,49.57
2017-12-19T22:10:28.589Z,46.23
2017-12-19T22:12:57.594Z,46.00
2017-12-19T22:15:25.820Z,45.23
2017-12-19T22:17:54.041Z,50.37
2017-12-19T22:20:22.294Z,50.23
2017-12-19T22:22:50.493Z,47.57
2017-12-19T22:25:19.481Z,49.07
2017-12-19T22:27:47.707Z,43.67
2017-12-19T22:30:15.959Z,49.87
2017-12-19T22:32:44.153Z,50.27
2017-12-19T22:35:12.373Z,52.60
2017-12-19T22:37:41.351Z,48.47
2017-12-19T22:40:09.622Z,49.60
2017-12-19T22:42:37.828Z,43.47
2017-12-19T22:45:06.828Z,49.53
2017-12-19T22:47:35.274Z,57.17
2017-12-19T22:50:03.475Z,50.33
2017-12-19T22:52:31.723Z,52.60
2017-12-19T22:54:59.897Z,52.90
2017-12-19T22:57:28.881Z,46.47
2017-12-19T22:59:57.081Z,50.47
2017-12-19T23:02:25.310Z,41.43
2017-12-19T23:04:53.529Z,48.37
2017-12-19T23:07:21.792Z,45.30
2017-12-19T23:09:50.022Z,47.93
2017-12-19T23:12:18.245Z,56.80
2017-12-19T23:14:46.716Z,46.80
2017-12-19T23:17:15.714Z,55.90
2017-12-19T23:19:44.707Z,49.70
2017-12-19T23:22:12.925Z,42.70
2017-12-19T23:24:41.149Z,47.30
2017-12-19T23:27:10.145Z,55.27
2017-12-19T23:29:39.142Z,49.00
2017-12-19T23:32:08.126Z,47.47
2017-12-19T23:34:36.325Z,49.30
2017-12-19T23:37:04.549Z,47.27
2017-12-19T23:39:32.805Z,45.00
2017-12-19T23:42:01.034Z,48.43
2017-12-19T23:44:29.505Z,46.37
2017-12-19T23:46:57.821Z,47.27
2017-12-19T23:49:26.037Z,48.33
2017-12-19T23:51:54.336Z,43.17
2017-12-19T23:54:22.510Z,48.73
2017-12-19T23:56:50.754Z,46.80
2017-12-19T23:59:18.974Z,49.67
